Port Sanilac, Michigan
Current Conditions -  °F | °C
As of 10:00 PM on Monday 20 Oct 2014 (Local Time) from CYZR Reporting Station
Overcast Overcast  
Wind Chill: 52°   Ceiling: 7900
Heat Index: 52°   Visibility: 9mi
Dew Point: 48°   Wind: 10mph
Humidity: 88%   Direction: 330°NNW
Pressure: 29.83"   Gusts: NA
Location:  43.43°N, 82.54°W
Report Text: CYZR 210200Z AUTO 33009KT 9SM FEW048 SCT060 OVC079 11/09 A2983 RMK SLP103
Loading
Personal Weather Stations






























Interactive Weather Map
Tropical Storm Tracking
New forecast layout! Learn more

10-Day Weather Forecast

Advertisements
Track Severe Weather on mobile